메인 페이지
METAR-TAF:

METAR-TAF

공항 :

Redwood Falls Municipal Airport

Redwood Falls, 미네소타, 미국

위도: 44-32-50N, 경도: 095-04-56W, 고도: 312m

현재 날씨관측

예보는 43분 전, 10:53시(UTC)에 발표되었습니다.
남남서9kt
온도 -2°C
습도 69%
기압 1012 hPa
시정: 16.1km
맑음

METAR: KRWF 281053Z AUTO 20009KT 10SM CLR M02/M07 A2987 RMK AO2 SLP127 T10221072

시각: 06:36 (11:36 UTC)

예보

예보는 11분 전, 11:25시(UTC)에 발표되었습니다.
예보 대상 시간: 28일 12시부터 29일 12시까지 (UTC)
남서8kt
시정: 10km
고도 12000ft 상공 구름 보통
28일 1700시부터 (UTC)
8kt
시정: 10km
고도 20000ft 상공 구름 보통
29일 0000시부터 (UTC)
북서6kt
시정: 10km
고도 6000ft 상공 구름 보통
29일 0600시부터 (UTC)
북북서6kt
시정: 10km
고도 4000ft 상공 구름 많음

TAF: KRWF 281125Z 2812/2912 23008KT P6SM SCT120 FM281700 28008KT P6SM SCT200 FM290000 32006KT P6SM SCT060 FM290600 34006KT P6SM BKN040

4,000개 이상의 공항 관측 자료 및 예보 (METAR 및 TAF 보고).

지도상에서 검색 가능한 기상관측소가 노란 점과 빨간 점으로 표시되어 있습니다.

기상관측소 명을 보려면 표시 위로 마우스를 이동하세요.

날씨 관측과 예보를 보려면 클릭하세요.

지도 변경 : 확대하려면 엑스 표시가 있는 녹색 버튼, 축소하려면 빼기 표시가 있는 녹색 버튼, 다음 페이지의 지도를 보려면 녹색 화살표를 클릭하세요.


METAR-TAF: